sensor_id;sensor_type;location;lat;lon;timestamp;pressure;altitude;pressure_sealevel;temperature;humidity
12969;BME280;6549;53.128;8.182;2022-10-26T00:00:40;101334.91;;;7.63;100.00
12969;BME280;6549;53.128;8.182;2022-10-26T00:03:42;101340.03;;;7.64;100.00
12969;BME280;6549;53.128;8.182;2022-10-26T00:06:43;101335.69;;;7.63;100.00
12969;BME280;6549;53.128;8.182;2022-10-26T00:09:43;101333.56;;;7.57;100.00
12969;BME280;6549;53.128;8.182;2022-10-26T00:12:47;101338.94;;;7.53;100.00
12969;BME280;6549;53.128;8.182;2022-10-26T00:15:48;101339.66;;;7.50;100.00
12969;BME280;6549;53.128;8.182;2022-10-26T00:18:49;101328.63;;;7.47;100.00
12969;BME280;6549;53.128;8.182;2022-10-26T00:21:50;101336.72;;;7.43;100.00
12969;BME280;6549;53.128;8.182;2022-10-26T00:24:51;101335.38;;;7.37;100.00
12969;BME280;6549;53.128;8.182;2022-10-26T00:27:51;101339.97;;;7.33;100.00
12969;BME280;6549;53.128;8.182;2022-10-26T00:30:52;101337.22;;;7.33;100.00
12969;BME280;6549;53.128;8.182;2022-10-26T00:33:53;101334.03;;;7.31;100.00
12969;BME280;6549;53.128;8.182;2022-10-26T00:36:54;101341.81;;;7.29;100.00
12969;BME280;6549;53.128;8.182;2022-10-26T00:39:54;101344.53;;;7.29;100.00
12969;BME280;6549;53.128;8.182;2022-10-26T00:42:55;101343.75;;;7.29;100.00
12969;BME280;6549;53.128;8.182;2022-10-26T00:45:57;101347.72;;;7.31;100.00
12969;BME280;6549;53.128;8.182;2022-10-26T00:49:02;101349.31;;;7.32;100.00
12969;BME280;6549;53.128;8.182;2022-10-26T00:52:05;101343.84;;;7.32;100.00
12969;BME280;6549;53.128;8.182;2022-10-26T00:55:06;101343.75;;;7.29;100.00
12969;BME280;6549;53.128;8.182;2022-10-26T00:58:08;101346.81;;;7.27;100.00
12969;BME280;6549;53.128;8.182;2022-10-26T01:01:09;101345.22;;;7.26;100.00
12969;BME280;6549;53.128;8.182;2022-10-26T01:04:11;101345.22;;;7.26;100.00
12969;BME280;6549;53.128;8.182;2022-10-26T01:07:12;101338.63;;;7.27;100.00
12969;BME280;6549;53.128;8.182;2022-10-26T01:10:13;101337.47;;;7.28;100.00
12969;BME280;6549;53.128;8.182;2022-10-26T01:13:14;101341.81;;;7.29;100.00
12969;BME280;6549;53.128;8.182;2022-10-26T01:23:18;101332.50;;;7.18;100.00
12969;BME280;6549;53.128;8.182;2022-10-26T01:36:18;101326.16;;;7.14;100.00
12969;BME280;6549;53.128;8.182;2022-10-26T01:39:24;101320.69;;;7.14;100.00
12969;BME280;6549;53.128;8.182;2022-10-26T01:42:29;101311.34;;;7.15;100.00
12969;BME280;6549;53.128;8.182;2022-10-26T01:45:32;101310.53;;;7.14;100.00
12969;BME280;6549;53.128;8.182;2022-10-26T01:48:34;101301.13;;;7.12;100.00
12969;BME280;6549;53.128;8.182;2022-10-26T01:51:35;101294.94;;;7.15;100.00
12969;BME280;6549;53.128;8.182;2022-10-26T01:54:37;101300.31;;;7.11;100.00
12969;BME280;6549;53.128;8.182;2022-10-26T01:57:37;101296.31;;;7.09;100.00
12969;BME280;6549;53.128;8.182;2022-10-26T02:00:41;101306.91;;;7.10;100.00
12969;BME280;6549;53.128;8.182;2022-10-26T02:03:57;101303.72;;;7.08;100.00
12969;BME280;6549;53.128;8.182;2022-10-26T02:13:15;101287.44;;;7.12;100.00
12969;BME280;6549;53.128;8.182;2022-10-26T02:16:31;101285.41;;;7.09;100.00
12969;BME280;6549;53.128;8.182;2022-10-26T02:19:44;101277.66;;;7.11;100.00
12969;BME280;6549;53.128;8.182;2022-10-26T02:22:49;101276.94;;;7.14;100.00
12969;BME280;6549;53.128;8.182;2022-10-26T02:25:55;101270.78;;;7.17;100.00
12969;BME280;6549;53.128;8.182;2022-10-26T02:29:00;101271.94;;;7.16;100.00
12969;BME280;6549;53.128;8.182;2022-10-26T02:32:02;101269.22;;;7.16;100.00
12969;BME280;6549;53.128;8.182;2022-10-26T02:35:05;101267.28;;;7.16;100.00
12969;BME280;6549;53.128;8.182;2022-10-26T02:38:08;101265.44;;;7.20;100.00
12969;BME280;6549;53.128;8.182;2022-10-26T02:41:11;101259.97;;;7.20;100.00
12969;BME280;6549;53.128;8.182;2022-10-26T02:44:23;101252.19;;;7.22;100.00
12969;BME280;6549;53.128;8.182;2022-10-26T02:47:25;101246.72;;;7.22;100.00
12969;BME280;6549;53.128;8.182;2022-10-26T02:50:32;101245.94;;;7.22;100.00
12969;BME280;6549;53.128;8.182;2022-10-26T02:53:45;101245.13;;;7.21;100.00
12969;BME280;6549;53.128;8.182;2022-10-26T02:56:59;101234.31;;;7.25;100.00
12969;BME280;6549;53.128;8.182;2022-10-26T03:00:01;101248.31;;;7.23;100.00
12969;BME280;6549;53.128;8.182;2022-10-26T03:03:02;101245.13;;;7.21;100.00
12969;BME280;6549;53.128;8.182;2022-10-26T03:06:04;101245.94;;;7.22;100.00
12969;BME280;6549;53.128;8.182;2022-10-26T03:09:04;101249.72;;;7.17;100.00
12969;BME280;6549;53.128;8.182;2022-10-26T03:12:04;101245.13;;;7.21;100.00
12969;BME280;6549;53.128;8.182;2022-10-26T03:15:05;101245.66;;;7.27;100.00
12969;BME280;6549;53.128;8.182;2022-10-26T03:18:06;101241.34;;;7.26;100.00
12969;BME280;6549;53.128;8.182;2022-10-26T03:21:07;101240.66;;;7.29;100.00
12969;BME280;6549;53.128;8.182;2022-10-26T03:24:08;101234.56;;;7.36;100.00
12969;BME280;6549;53.128;8.182;2022-10-26T03:27:08;101241.13;;;7.47;100.00
12969;BME280;6549;53.128;8.182;2022-10-26T03:30:09;101239.59;;;7.49;100.00
12969;BME280;6549;53.128;8.182;2022-10-26T03:33:10;101235.66;;;7.47;100.00
12969;BME280;6549;53.128;8.182;2022-10-26T03:36:10;101238.81;;;7.49;100.00
12969;BME280;6549;53.128;8.182;2022-10-26T03:39:10;101248.19;;;7.48;100.00
12969;BME280;6549;53.128;8.182;2022-10-26T03:42:10;101241.91;;;7.47;100.00
12969;BME280;6549;53.128;8.182;2022-10-26T03:45:11;101246.66;;;7.50;100.00
12969;BME280;6549;53.128;8.182;2022-10-26T03:48:11;101245.06;;;7.49;100.00
12969;BME280;6549;53.128;8.182;2022-10-26T03:51:11;101245.06;;;7.49;100.00
12969;BME280;6549;53.128;8.182;2022-10-26T03:54:13;101244.66;;;7.47;100.00
12969;BME280;6549;53.128;8.182;2022-10-26T03:57:13;101247.38;;;7.47;100.00
12969;BME280;6549;53.128;8.182;2022-10-26T04:00:15;101235.66;;;7.47;100.00
12969;BME280;6549;53.128;8.182;2022-10-26T04:03:16;101238.72;;;7.45;100.00
12969;BME280;6549;53.128;8.182;2022-10-26T04:06:16;101238.28;;;7.43;100.00
12969;BME280;6549;53.128;8.182;2022-10-26T04:09:17;101235.09;;;7.41;100.00
12969;BME280;6549;53.128;8.182;2022-10-26T04:12:17;101243.13;;;7.34;100.00
12969;BME280;6549;53.128;8.182;2022-10-26T04:15:17;101245.06;;;7.34;100.00
12969;BME280;6549;53.128;8.182;2022-10-26T04:18:18;101246.22;;;7.33;100.00
12969;BME280;6549;53.128;8.182;2022-10-26T04:21:18;101246.13;;;7.29;100.00
12969;BME280;6549;53.128;8.182;2022-10-26T04:24:19;101239.06;;;7.28;100.00
12969;BME280;6549;53.128;8.182;2022-10-26T04:27:20;101249.13;;;7.24;100.00
12969;BME280;6549;53.128;8.182;2022-10-26T04:30:20;101252.00;;;7.15;100.00
12969;BME280;6549;53.128;8.182;2022-10-26T04:33:21;101255.88;;;7.14;100.00
12969;BME280;6549;53.128;8.182;2022-10-26T04:36:21;101260.56;;;7.14;100.00
12969;BME280;6549;53.128;8.182;2022-10-26T04:39:21;101246.34;;;7.08;100.00
12969;BME280;6549;53.128;8.182;2022-10-26T04:42:22;101243.19;;;7.06;100.00
12969;BME280;6549;53.128;8.182;2022-10-26T04:45:22;101242.72;;;7.04;100.00
12969;BME280;6549;53.128;8.182;2022-10-26T04:48:23;101232.34;;;7.10;100.00
12969;BME280;6549;53.128;8.182;2022-10-26T04:51:25;101241.66;;;7.09;100.00
12969;BME280;6549;53.128;8.182;2022-10-26T04:54:25;101237.38;;;7.08;100.00
12969;BME280;6549;53.128;8.182;2022-10-26T04:57:26;101232.09;;;7.15;100.00
12969;BME280;6549;53.128;8.182;2022-10-26T05:00:26;101234.34;;;7.13;100.00
12969;BME280;6549;53.128;8.182;2022-10-26T05:03:27;101235.53;;;7.12;100.00
12969;BME280;6549;53.128;8.182;2022-10-26T05:06:27;101225.72;;;7.11;100.00
12969;BME280;6549;53.128;8.182;2022-10-26T05:09:29;101238.50;;;7.07;100.00
12969;BME280;6549;53.128;8.182;2022-10-26T05:12:29;101223.59;;;7.04;100.00
12969;BME280;6549;53.128;8.182;2022-10-26T05:15:30;101225.28;;;7.09;100.00
12969;BME280;6549;53.128;8.182;2022-10-26T05:18:30;101229.19;;;7.08;100.00
12969;BME280;6549;53.128;8.182;2022-10-26T05:21:30;101227.34;;;7.12;100.00
12969;BME280;6549;53.128;8.182;2022-10-26T05:24:31;101219.22;;;7.15;100.00
12969;BME280;6549;53.128;8.182;2022-10-26T05:27:31;101226.88;;;7.10;100.00
12969;BME280;6549;53.128;8.182;2022-10-26T05:30:31;101233.03;;;7.07;100.00
12969;BME280;6549;53.128;8.182;2022-10-26T05:33:32;101228.38;;;7.07;100.00
12969;BME280;6549;53.128;8.182;2022-10-26T05:36:32;101230.91;;;7.00;100.00
12969;BME280;6549;53.128;8.182;2022-10-26T05:39:32;101226.47;;;6.96;100.00
12969;BME280;6549;53.128;8.182;2022-10-26T05:42:33;101233.13;;;6.95;100.00
12969;BME280;6549;53.128;8.182;2022-10-26T05:45:33;101228.34;;;6.92;100.00
12969;BME280;6549;53.128;8.182;2022-10-26T05:48:33;101223.13;;;6.87;100.00
12969;BME280;6549;53.128;8.182;2022-10-26T05:51:33;101228.94;;;6.85;100.00
12969;BME280;6549;53.128;8.182;2022-10-26T05:54:36;101241.81;;;6.85;100.00
12969;BME280;6549;53.128;8.182;2022-10-26T05:57:37;101243.94;;;6.91;100.00
12969;BME280;6549;53.128;8.182;2022-10-26T06:00:45;101248.97;;;6.89;100.00
12969;BME280;6549;53.128;8.182;2022-10-26T06:04:06;101260.03;;;6.81;100.00
12969;BME280;6549;53.128;8.182;2022-10-26T06:07:14;101255.94;;;6.74;100.00
12969;BME280;6549;53.128;8.182;2022-10-26T06:10:15;101259.38;;;6.71;100.00
12969;BME280;6549;53.128;8.182;2022-10-26T06:13:16;101249.59;;;6.70;100.00
12969;BME280;6549;53.128;8.182;2022-10-26T06:20:01;101259.28;;;6.68;100.00
12969;BME280;6549;53.128;8.182;2022-10-26T06:23:23;101252.56;;;6.65;100.00
12969;BME280;6549;53.128;8.182;2022-10-26T06:26:45;101256.44;;;6.64;100.00
12969;BME280;6549;53.128;8.182;2022-10-26T06:30:02;101259.16;;;6.64;100.00
12969;BME280;6549;53.128;8.182;2022-10-26T06:33:03;101258.50;;;6.67;100.00
12969;BME280;6549;53.128;8.182;2022-10-26T06:36:20;101266.06;;;6.74;100.00
12969;BME280;6549;53.128;8.182;2022-10-26T06:39:23;101265.25;;;6.86;100.00
12969;BME280;6549;53.128;8.182;2022-10-26T06:42:25;101278.41;;;6.96;100.00
12969;BME280;6549;53.128;8.182;2022-10-26T06:45:25;101268.19;;;7.08;100.00
12969;BME280;6549;53.128;8.182;2022-10-26T06:48:28;101265.94;;;7.26;100.00
12969;BME280;6549;53.128;8.182;2022-10-26T06:51:29;101278.94;;;7.45;100.00
12969;BME280;6549;53.128;8.182;2022-10-26T06:54:50;101266.84;;;7.61;100.00
12969;BME280;6549;53.128;8.182;2022-10-26T06:57:51;101263.59;;;7.72;100.00
12969;BME280;6549;53.128;8.182;2022-10-26T07:00:53;101274.25;;;7.92;100.00
12969;BME280;6549;53.128;8.182;2022-10-26T07:03:54;101277.59;;;8.01;100.00
12969;BME280;6549;53.128;8.182;2022-10-26T07:06:54;101254.03;;;8.12;100.00
12969;BME280;6549;53.128;8.182;2022-10-26T07:09:56;101265.19;;;8.23;100.00
12969;BME280;6549;53.128;8.182;2022-10-26T07:12:56;101269.28;;;8.29;100.00
12969;BME280;6549;53.128;8.182;2022-10-26T07:15:57;101261.25;;;8.36;100.00
12969;BME280;6549;53.128;8.182;2022-10-26T07:18:57;101264.56;;;8.45;100.00
12969;BME280;6549;53.128;8.182;2022-10-26T07:21:57;101265.53;;;8.53;100.00
12969;BME280;6549;53.128;8.182;2022-10-26T07:25:00;101262.84;;;8.56;100.00
12969;BME280;6549;53.128;8.182;2022-10-26T07:28:01;101253.97;;;8.63;100.00
12969;BME280;6549;53.128;8.182;2022-10-26T07:31:01;101265.91;;;8.71;100.00
12969;BME280;6549;53.128;8.182;2022-10-26T07:34:01;101257.88;;;8.81;100.00
12969;BME280;6549;53.128;8.182;2022-10-26T07:37:02;101259.69;;;8.93;100.00
12969;BME280;6549;53.128;8.182;2022-10-26T07:40:03;101259.88;;;9.03;100.00
12969;BME280;6549;53.128;8.182;2022-10-26T07:43:04;101266.38;;;9.15;100.00
12969;BME280;6549;53.128;8.182;2022-10-26T07:46:04;101266.19;;;9.27;100.00
12969;BME280;6549;53.128;8.182;2022-10-26T07:49:05;101265.22;;;9.38;100.00
12969;BME280;6549;53.128;8.182;2022-10-26T07:52:05;101265.84;;;9.51;100.00
12969;BME280;6549;53.128;8.182;2022-10-26T07:55:07;101266.88;;;9.66;100.00
12969;BME280;6549;53.128;8.182;2022-10-26T07:58:07;101257.59;;;9.74;100.00
12969;BME280;6549;53.128;8.182;2022-10-26T08:01:13;101259.41;;;9.89;100.00
12969;BME280;6549;53.128;8.182;2022-10-26T08:04:14;101253.19;;;10.45;100.00
12969;BME280;6549;53.128;8.182;2022-10-26T08:07:15;101251.97;;;11.02;100.00
12969;BME280;6549;53.128;8.182;2022-10-26T08:10:15;101257.06;;;11.84;100.00
12969;BME280;6549;53.128;8.182;2022-10-26T08:13:15;101255.44;;;13.35;100.00
12969;BME280;6549;53.128;8.182;2022-10-26T08:16:16;101260.88;;;13.03;100.00
12969;BME280;6549;53.128;8.182;2022-10-26T08:19:17;101256.81;;;12.72;100.00
12969;BME280;6549;53.128;8.182;2022-10-26T08:22:17;101262.34;;;12.76;100.00
12969;BME280;6549;53.128;8.182;2022-10-26T08:25:18;101270.47;;;13.90;100.00
12969;BME280;6549;53.128;8.182;2022-10-26T08:28:18;101276.06;;;15.16;100.00
12969;BME280;6549;53.128;8.182;2022-10-26T08:31:18;101278.34;;;14.20;100.00
12969;BME280;6549;53.128;8.182;2022-10-26T08:34:18;101272.84;;;13.53;100.00
12969;BME280;6549;53.128;8.182;2022-10-26T08:37:19;101265.16;;;12.86;100.00
12969;BME280;6549;53.128;8.182;2022-10-26T08:40:35;101266.94;;;12.50;100.00
12969;BME280;6549;53.128;8.182;2022-10-26T08:43:42;101261.34;;;12.33;100.00
12969;BME280;6549;53.128;8.182;2022-10-26T08:46:58;101264.47;;;12.35;100.00
12969;BME280;6549;53.128;8.182;2022-10-26T08:50:04;101264.47;;;12.28;100.00
12969;BME280;6549;53.128;8.182;2022-10-26T08:53:27;101256.66;;;12.44;100.00
12969;BME280;6549;53.128;8.182;2022-10-26T08:56:38;101256.38;;;12.63;100.00
12969;BME280;6549;53.128;8.182;2022-10-26T08:59:46;101255.72;;;13.01;100.00
12969;BME280;6549;53.128;8.182;2022-10-26T09:02:49;101249.16;;;13.59;100.00
12969;BME280;6549;53.128;8.182;2022-10-26T09:12:18;101247.44;;;15.37;100.00
12969;BME280;6549;53.128;8.182;2022-10-26T09:15:44;101259.03;;;16.21;100.00
12969;BME280;6549;53.128;8.182;2022-10-26T09:22:14;101238.75;;;16.65;100.00
12969;BME280;6549;53.128;8.182;2022-10-26T09:25:19;101236.91;;;16.51;100.00
12969;BME280;6549;53.128;8.182;2022-10-26T09:28:20;101236.03;;;16.61;100.00
12969;BME280;6549;53.128;8.182;2022-10-26T09:31:21;101234.09;;;16.89;100.00
12969;BME280;6549;53.128;8.182;2022-10-26T09:34:26;101236.72;;;16.99;100.00
12969;BME280;6549;53.128;8.182;2022-10-26T09:37:33;101228.09;;;17.21;100.00
12969;BME280;6549;53.128;8.182;2022-10-26T09:40:46;101230.97;;;17.67;100.00
12969;BME280;6549;53.128;8.182;2022-10-26T09:43:56;101232.97;;;17.90;100.00
12969;BME280;6549;53.128;8.182;2022-10-26T09:50:28;101237.41;;;18.07;100.00
12969;BME280;6549;53.128;8.182;2022-10-26T09:53:30;101249.47;;;18.01;100.00
12969;BME280;6549;53.128;8.182;2022-10-26T09:56:34;101249.78;;;18.26;100.00
12969;BME280;6549;53.128;8.182;2022-10-26T09:59:38;101250.56;;;17.83;100.00
12969;BME280;6549;53.128;8.182;2022-10-26T10:02:45;101252.13;;;17.58;100.00
12969;BME280;6549;53.128;8.182;2022-10-26T10:05:49;101254.91;;;17.61;100.00
12969;BME280;6549;53.128;8.182;2022-10-26T10:09:06;101257.88;;;17.47;100.00
12969;BME280;6549;53.128;8.182;2022-10-26T10:12:19;101265.19;;;17.07;100.00
12969;BME280;6549;53.128;8.182;2022-10-26T10:15:24;101268.75;;;16.77;100.00
12969;BME280;6549;53.128;8.182;2022-10-26T10:18:24;101272.94;;;16.55;100.00
12969;BME280;6549;53.128;8.182;2022-10-26T10:21:39;101272.50;;;16.23;100.00
12969;BME280;6549;53.128;8.182;2022-10-26T10:25:00;101263.31;;;15.88;100.00
12969;BME280;6549;53.128;8.182;2022-10-26T10:28:02;101270.47;;;15.82;100.00
12969;BME280;6549;53.128;8.182;2022-10-26T10:31:31;101268.19;;;15.73;100.00
12969;BME280;6549;53.128;8.182;2022-10-26T10:34:32;101272.22;;;15.65;100.00
12969;BME280;6549;53.128;8.182;2022-10-26T10:37:40;101282.00;;;15.77;100.00
12969;BME280;6549;53.128;8.182;2022-10-26T10:40:50;101279.97;;;15.81;100.00
12969;BME280;6549;53.128;8.182;2022-10-26T10:43:57;101284.28;;;15.89;100.00
12969;BME280;6549;53.128;8.182;2022-10-26T10:47:03;101294.44;;;16.06;100.00
12969;BME280;6549;53.128;8.182;2022-10-26T10:50:10;101293.38;;;15.90;100.00
12969;BME280;6549;53.128;8.182;2022-10-26T10:57:14;101294.41;;;16.47;100.00
12969;BME280;6549;53.128;8.182;2022-10-26T11:00:19;101293.00;;;16.70;100.00
12969;BME280;6549;53.128;8.182;2022-10-26T11:03:36;101290.22;;;16.70;100.00
12969;BME280;6549;53.128;8.182;2022-10-26T11:06:40;101292.00;;;16.87;100.00
12969;BME280;6549;53.128;8.182;2022-10-26T11:09:42;101295.41;;;17.01;100.00
12969;BME280;6549;53.128;8.182;2022-10-26T11:12:50;101294.03;;;17.13;100.00
12969;BME280;6549;53.128;8.182;2022-10-26T11:16:08;101294.31;;;17.22;100.00
12969;BME280;6549;53.128;8.182;2022-10-26T11:19:22;101292.34;;;17.49;100.00
12969;BME280;6549;53.128;8.182;2022-10-26T11:22:32;101288.31;;;17.81;100.00
12969;BME280;6549;53.128;8.182;2022-10-26T11:25:40;101289.94;;;18.02;100.00
12969;BME280;6549;53.128;8.182;2022-10-26T11:28:58;101287.31;;;18.37;100.00
12969;BME280;6549;53.128;8.182;2022-10-26T11:32:27;101298.38;;;18.84;100.00
12969;BME280;6549;53.128;8.182;2022-10-26T11:35:45;101293.22;;;19.02;100.00
12969;BME280;6549;53.128;8.182;2022-10-26T11:39:02;101292.72;;;19.07;100.00
12969;BME280;6549;53.128;8.182;2022-10-26T11:45:27;101302.69;;;19.24;100.00
12969;BME280;6549;53.128;8.182;2022-10-26T11:49:25;101294.97;;;19.32;100.00
12969;BME280;6549;53.128;8.182;2022-10-26T11:52:31;101298.75;;;19.22;100.00
12969;BME280;6549;53.128;8.182;2022-10-26T11:55:33;101295.53;;;19.23;100.00
12969;BME280;6549;53.128;8.182;2022-10-26T11:58:33;101284.59;;;19.33;100.00
12969;BME280;6549;53.128;8.182;2022-10-26T12:01:35;101293.25;;;19.18;100.00
12969;BME280;6549;53.128;8.182;2022-10-26T12:04:37;101283.63;;;19.23;100.00
12969;BME280;6549;53.128;8.182;2022-10-26T12:07:38;101285.97;;;19.24;100.00
12969;BME280;6549;53.128;8.182;2022-10-26T12:10:41;101288.56;;;19.15;100.00
12969;BME280;6549;53.128;8.182;2022-10-26T12:13:53;101290.34;;;19.06;100.00
12969;BME280;6549;53.128;8.182;2022-10-26T12:23:38;101277.81;;;18.78;100.00
12969;BME280;6549;53.128;8.182;2022-10-26T12:30:13;101290.31;;;18.70;100.00
12969;BME280;6549;53.128;8.182;2022-10-26T12:33:27;101292.22;;;18.73;100.00
12969;BME280;6549;53.128;8.182;2022-10-26T12:36:47;101293.03;;;18.93;100.00
12969;BME280;6549;53.128;8.182;2022-10-26T12:39:48;101290.28;;;19.09;100.00
12969;BME280;6549;53.128;8.182;2022-10-26T12:42:48;101291.38;;;19.32;100.00
12969;BME280;6549;53.128;8.182;2022-10-26T12:53:06;101297.75;;;19.68;100.00
12969;BME280;6549;53.128;8.182;2022-10-26T12:56:12;101310.66;;;19.78;100.00
12969;BME280;6549;53.128;8.182;2022-10-26T12:59:40;101300.78;;;19.73;100.00
12969;BME280;6549;53.128;8.182;2022-10-26T13:06:18;101307.31;;;20.15;100.00
12969;BME280;6549;53.128;8.182;2022-10-26T13:09:30;101320.03;;;20.33;100.00
12969;BME280;6549;53.128;8.182;2022-10-26T13:12:50;101315.75;;;20.44;100.00
12969;BME280;6549;53.128;8.182;2022-10-26T13:15:53;101313.13;;;20.37;100.00
12969;BME280;6549;53.128;8.182;2022-10-26T13:18:54;101313.81;;;20.41;100.00
12969;BME280;6549;53.128;8.182;2022-10-26T13:21:57;101314.47;;;20.33;100.00
12969;BME280;6549;53.128;8.182;2022-10-26T13:25:01;101326.06;;;20.31;100.00
12969;BME280;6549;53.128;8.182;2022-10-26T13:28:05;101319.88;;;20.07;100.00
12969;BME280;6549;53.128;8.182;2022-10-26T13:34:30;101318.50;;;19.99;100.00
12969;BME280;6549;53.128;8.182;2022-10-26T13:37:32;101319.34;;;19.96;100.00
12969;BME280;6549;53.128;8.182;2022-10-26T13:40:35;101318.22;;;19.94;100.00
12969;BME280;6549;53.128;8.182;2022-10-26T13:43:37;101316.66;;;19.93;100.00
12969;BME280;6549;53.128;8.182;2022-10-26T13:46:38;101330.44;;;20.00;100.00
12969;BME280;6549;53.128;8.182;2022-10-26T13:49:43;101332.53;;;19.96;100.00
12969;BME280;6549;53.128;8.182;2022-10-26T13:52:46;101331.28;;;19.81;100.00
12969;BME280;6549;53.128;8.182;2022-10-26T13:56:02;101327.63;;;19.84;100.00
12969;BME280;6549;53.128;8.182;2022-10-26T13:59:06;101332.97;;;19.78;100.00
12969;BME280;6549;53.128;8.182;2022-10-26T14:02:26;101346.91;;;19.78;100.00
12969;BME280;6549;53.128;8.182;2022-10-26T14:05:27;101349.22;;;19.63;100.00
12969;BME280;6549;53.128;8.182;2022-10-26T14:08:27;101335.88;;;19.55;100.00
12969;BME280;6549;53.128;8.182;2022-10-26T14:11:33;101329.16;;;19.52;100.00
12969;BME280;6549;53.128;8.182;2022-10-26T14:14:36;101334.91;;;19.61;100.00
12969;BME280;6549;53.128;8.182;2022-10-26T14:17:37;101328.31;;;19.71;100.00
12969;BME280;6549;53.128;8.182;2022-10-26T14:20:37;101325.53;;;19.71;100.00
12969;BME280;6549;53.128;8.182;2022-10-26T14:23:47;101332.84;;;19.65;100.00
12969;BME280;6549;53.128;8.182;2022-10-26T14:26:48;101331.97;;;19.68;100.00
12969;BME280;6549;53.128;8.182;2022-10-26T14:29:50;101331.88;;;19.56;100.00
12969;BME280;6549;53.128;8.182;2022-10-26T14:32:52;101346.16;;;19.58;100.00
12969;BME280;6549;53.128;8.182;2022-10-26T14:35:52;101346.25;;;19.54;100.00
12969;BME280;6549;53.128;8.182;2022-10-26T14:38:57;101340.94;;;19.40;100.00
12969;BME280;6549;53.128;8.182;2022-10-26T14:42:02;101338.34;;;19.33;100.00
12969;BME280;6549;53.128;8.182;2022-10-26T14:45:05;101352.41;;;19.26;100.00
12969;BME280;6549;53.128;8.182;2022-10-26T14:48:33;101346.81;;;19.26;100.00
12969;BME280;6549;53.128;8.182;2022-10-26T14:51:34;101346.63;;;19.17;100.00
12969;BME280;6549;53.128;8.182;2022-10-26T14:54:35;101355.94;;;19.10;100.00
12969;BME280;6549;53.128;8.182;2022-10-26T14:57:39;101348.06;;;19.05;100.00
12969;BME280;6549;53.128;8.182;2022-10-26T15:00:41;101351.97;;;19.08;100.00
12969;BME280;6549;53.128;8.182;2022-10-26T15:03:43;101355.72;;;19.01;100.00
12969;BME280;6549;53.128;8.182;2022-10-26T15:06:45;101368.22;;;18.93;100.00
12969;BME280;6549;53.128;8.182;2022-10-26T15:09:54;101376.41;;;18.80;100.00
12969;BME280;6549;53.128;8.182;2022-10-26T15:12:54;101375.75;;;18.73;100.00
12969;BME280;6549;53.128;8.182;2022-10-26T15:15:56;101381.81;;;18.68;100.00
12969;BME280;6549;53.128;8.182;2022-10-26T15:19:05;101386.00;;;18.56;100.00
12969;BME280;6549;53.128;8.182;2022-10-26T15:22:20;101391.28;;;18.47;100.00
12969;BME280;6549;53.128;8.182;2022-10-26T15:25:27;101395.47;;;18.35;100.00
12969;BME280;6549;53.128;8.182;2022-10-26T15:28:36;101392.88;;;18.25;100.00
12969;BME280;6549;53.128;8.182;2022-10-26T15:31:43;101396.13;;;18.20;100.00
12969;BME280;6549;53.128;8.182;2022-10-26T15:35:33;101408.97;;;18.14;100.00
12969;BME280;6549;53.128;8.182;2022-10-26T15:38:09;101416.34;;;17.97;100.00
12969;BME280;6549;53.128;8.182;2022-10-26T15:41:26;101407.50;;;17.79;100.00
12969;BME280;6549;53.128;8.182;2022-10-26T15:44:27;101415.59;;;17.66;100.00
12969;BME280;6549;53.128;8.182;2022-10-26T15:47:31;101417.22;;;17.64;100.00
12969;BME280;6549;53.128;8.182;2022-10-26T15:50:32;101417.72;;;17.55;100.00
12969;BME280;6549;53.128;8.182;2022-10-26T15:53:32;101421.78;;;17.47;100.00
12969;BME280;6549;53.128;8.182;2022-10-26T15:56:34;101440.16;;;17.37;100.00
12969;BME280;6549;53.128;8.182;2022-10-26T15:59:35;101440.28;;;17.27;100.00
12969;BME280;6549;53.128;8.182;2022-10-26T16:02:37;101441.22;;;17.17;100.00
12969;BME280;6549;53.128;8.182;2022-10-26T16:05:38;101438.13;;;17.08;100.00
12969;BME280;6549;53.128;8.182;2022-10-26T16:08:38;101446.56;;;16.97;100.00
12969;BME280;6549;53.128;8.182;2022-10-26T16:11:38;101435.53;;;16.90;100.00
12969;BME280;6549;53.128;8.182;2022-10-26T16:14:39;101442.34;;;16.82;100.00
12969;BME280;6549;53.128;8.182;2022-10-26T16:17:39;101450.00;;;16.71;100.00
12969;BME280;6549;53.128;8.182;2022-10-26T16:20:40;101462.41;;;16.59;100.00
12969;BME280;6549;53.128;8.182;2022-10-26T16:23:41;101453.38;;;16.44;100.00
12969;BME280;6549;53.128;8.182;2022-10-26T16:26:41;101455.44;;;16.30;100.00
12969;BME280;6549;53.128;8.182;2022-10-26T16:29:41;101469.81;;;16.17;100.00
12969;BME280;6549;53.128;8.182;2022-10-26T16:32:42;101475.81;;;16.09;100.00
12969;BME280;6549;53.128;8.182;2022-10-26T16:35:42;101473.06;;;15.98;100.00
12969;BME280;6549;53.128;8.182;2022-10-26T16:38:43;101475.50;;;15.89;100.00
12969;BME280;6549;53.128;8.182;2022-10-26T16:41:43;101483.09;;;15.78;100.00
12969;BME280;6549;53.128;8.182;2022-10-26T16:44:43;101485.91;;;15.67;100.00
12969;BME280;6549;53.128;8.182;2022-10-26T16:47:44;101501.78;;;15.60;100.00
12969;BME280;6549;53.128;8.182;2022-10-26T16:50:44;101505.75;;;15.55;100.00
12969;BME280;6549;53.128;8.182;2022-10-26T16:53:49;101509.72;;;15.47;100.00
12969;BME280;6549;53.128;8.182;2022-10-26T16:56:50;101513.28;;;15.37;100.00
12969;BME280;6549;53.128;8.182;2022-10-26T16:59:51;101517.66;;;15.27;100.00
12969;BME280;6549;53.128;8.182;2022-10-26T17:02:51;101512.56;;;15.12;100.00
12969;BME280;6549;53.128;8.182;2022-10-26T17:05:59;101533.13;;;15.04;100.00
12969;BME280;6549;53.128;8.182;2022-10-26T17:09:00;101538.69;;;15.04;100.00
12969;BME280;6549;53.128;8.182;2022-10-26T17:12:01;101536.31;;;14.95;100.00
12969;BME280;6549;53.128;8.182;2022-10-26T17:15:01;101546.97;;;14.86;100.00
12969;BME280;6549;53.128;8.182;2022-10-26T17:18:01;101564.38;;;14.79;100.00
12969;BME280;6549;53.128;8.182;2022-10-26T17:21:02;101562.00;;;14.71;100.00